Time;durP1;ratioP1;P1;durP2;ratioP2;P2;SDS_P1;SDS_P2;PMS_P1;PMS_P2;Temp;Humidity;BMP_temperature;BMP_pressure;BME280_temperature;BME280_humidity;BME280_pressure;Samples;Min_cycle;Max_cycle;Signal;HPM_P1;HPM_P2
2021/11/16 00:01:16;;;;;;;56.68;28.67;;;;;;;2.83;90.39;101801.06;1798065;79;27327;-64
2021/11/16 00:03:42;;;;;;;48.68;26.57;;;;;;;2.79;90.42;101796.67;1798077;79;25621;-64
2021/11/16 00:06:09;;;;;;;48.95;26.75;;;;;;;2.79;90.44;101802.02;1797894;79;25713;-63
2021/11/16 00:08:36;;;;;;;50.63;25.80;;;;;;;2.77;90.36;101789.37;1798098;79;25642;-63
2021/11/16 00:11:04;;;;;;;46.58;24.67;;;;;;;2.76;90.05;101790.95;1798030;79;25436;-63
2021/11/16 00:13:30;;;;;;;50.17;25.85;;;;;;;2.71;89.77;101787.59;1797934;79;27307;-64
2021/11/16 00:15:57;;;;;;;51.65;26.90;;;;;;;2.68;89.93;101785.36;1798020;79;25607;-63
2021/11/16 00:18:28;;;;;;;55.75;28.23;;;;;;;2.68;90.27;101787.22;1798011;79;25555;-63
2021/11/16 00:20:53;;;;;;;51.33;25.65;;;;;;;2.63;90.15;101789.73;1797654;79;26189;-63
2021/11/16 00:23:22;;;;;;;48.70;25.00;;;;;;;2.60;89.96;101788.30;1797986;79;25703;-63
2021/11/16 00:25:53;;;;;;;50.48;25.20;;;;;;;2.58;90.00;101781.03;1795411;79;28062;-63
2021/11/16 00:28:22;;;;;;;54.88;27.75;;;;;;;2.54;89.89;101777.98;1790654;80;25661;-63
2021/11/16 00:30:50;;;;;;;44.90;21.83;;;;;;;2.51;90.09;101780.28;1798264;79;25595;-63
2021/11/16 00:33:18;;;;;;;48.02;25.88;;;;;;;2.51;90.27;101778.41;1797950;79;25810;-62
2021/11/16 00:35:44;;;;;;;49.53;26.60;;;;;;;2.47;90.23;101770.55;1798050;79;25740;-62
2021/11/16 00:38:13;;;;;;;45.28;25.40;;;;;;;2.42;90.22;101759.70;1778078;79;27323;-63
2021/11/16 00:40:40;;;;;;;50.28;25.45;;;;;;;2.40;90.25;101762.59;1798028;79;25420;-63
2021/11/16 00:43:08;;;;;;;48.48;26.07;;;;;;;2.37;90.34;101764.36;1777959;79;25756;-63
2021/11/16 00:45:38;;;;;;;46.58;25.45;;;;;;;2.37;90.75;101771.03;1798077;79;25641;-64
2021/11/16 00:48:07;;;;;;;52.00;25.92;;;;;;;2.35;90.73;101769.11;1798114;79;25252;-63
2021/11/16 00:50:37;;;;;;;57.43;27.75;;;;;;;2.33;90.74;101763.67;1797872;79;27348;-63
2021/11/16 00:53:05;;;;;;;52.62;26.60;;;;;;;2.32;90.90;101760.72;1797948;79;25503;-63
2021/11/16 00:55:32;;;;;;;52.35;25.92;;;;;;;2.30;91.00;101758.75;1797939;79;25570;-63
2021/11/16 00:57:59;;;;;;;49.08;26.15;;;;;;;2.29;91.02;101759.28;1797818;79;25613;-63
2021/11/16 01:00:27;;;;;;;52.17;26.30;;;;;;;2.30;91.19;101761.42;1798023;79;25669;-63
2021/11/16 01:02:55;;;;;;;49.08;26.62;;;;;;;2.30;91.07;101762.76;1798027;79;27278;-64
2021/11/16 01:05:22;;;;;;;53.15;27.93;;;;;;;2.30;91.28;101758.75;1797681;79;25706;-64
2021/11/16 01:07:49;;;;;;;50.60;26.62;;;;;;;2.33;91.48;101755.66;1798041;79;25609;-63
2021/11/16 01:10:19;;;;;;;53.87;26.75;;;;;;;2.34;91.77;101754.11;1797901;79;25684;-63
2021/11/16 01:12:45;;;;;;;52.88;27.35;;;;;;;2.38;92.03;101760.66;1797935;79;25660;-63
2021/11/16 01:15:15;;;;;;;51.25;27.27;;;;;;;2.43;92.19;101762.16;1797923;79;27881;-63
2021/11/16 01:17:42;;;;;;;55.23;26.02;;;;;;;2.47;92.35;101765.21;1797895;79;25436;-63
2021/11/16 01:20:12;;;;;;;55.28;26.40;;;;;;;2.53;92.49;101765.65;1797884;79;25436;-63
2021/11/16 01:22:39;;;;;;;56.63;27.25;;;;;;;2.58;92.58;101756.46;1778046;79;25641;-63
2021/11/16 01:25:09;;;;;;;56.13;28.40;;;;;;;2.65;92.70;101755.06;1797899;79;25685;-63
2021/11/16 01:27:36;;;;;;;55.92;27.87;;;;;;;2.70;92.76;101753.08;1805609;79;27422;-63
2021/11/16 01:30:09;;;;;;;51.40;26.82;;;;;;;2.76;92.77;101751.68;1811251;79;25627;-63
2021/11/16 01:32:43;;;;;;;53.28;27.22;;;;;;;2.80;92.77;101744.03;1810556;79;25676;-62
2021/11/16 01:35:08;;;;;;;55.10;27.13;;;;;;;2.86;92.78;101747.67;1810661;79;25624;-63
2021/11/16 01:37:36;;;;;;;50.23;27.30;;;;;;;2.90;92.81;101743.00;1811231;79;25608;-62
2021/11/16 01:40:14;;;;;;;49.25;26.50;;;;;;;2.94;92.85;101736.16;1810932;79;27127;-62
2021/11/16 01:42:40;;;;;;;49.08;26.20;;;;;;;2.98;92.80;101734.70;1811001;79;25572;-62
2021/11/16 01:45:09;;;;;;;52.75;27.37;;;;;;;3.01;92.72;101715.23;1811212;79;25648;-62
2021/11/16 01:47:35;;;;;;;53.73;28.05;;;;;;;3.04;92.71;101712.13;1811050;79;25682;-62
2021/11/16 01:50:04;;;;;;;52.90;27.20;;;;;;;3.05;92.72;101710.56;1811734;79;25649;-63
2021/11/16 01:52:31;;;;;;;51.13;25.68;;;;;;;3.10;92.70;101711.20;1811545;79;27400;-64
2021/11/16 01:54:57;;;;;;;47.58;25.70;;;;;;;3.10;92.69;101706.70;1811122;79;27096;-63
2021/11/16 01:57:25;;;;;;;49.58;26.05;;;;;;;3.13;92.72;101711.61;1811655;79;25695;-63
2021/11/16 01:59:52;;;;;;;55.95;27.20;;;;;;;3.15;92.69;101700.66;1811526;79;26173;-63
2021/11/16 02:02:19;;;;;;;52.17;27.67;;;;;;;3.17;92.76;101698.59;1811274;79;25855;-63
2021/11/16 02:04:45;;;;;;;47.85;25.62;;;;;;;3.19;92.75;101700.52;1811431;79;27662;-63
2021/11/16 02:07:12;;;;;;;50.60;26.62;;;;;;;3.21;92.70;101693.61;1811313;79;25615;-63
2021/11/16 02:09:39;;;;;;;51.77;25.55;;;;;;;3.21;92.76;101685.06;1811204;79;25613;-63
2021/11/16 02:12:07;;;;;;;47.27;24.32;;;;;;;3.25;92.83;101684.09;1789208;79;26258;-63
2021/11/16 02:14:35;;;;;;;52.13;26.73;;;;;;;3.26;92.78;101678.52;1811402;79;25691;-63
2021/11/16 02:17:03;;;;;;;52.00;26.33;;;;;;;3.27;92.73;101674.81;1810973;79;29440;-63
2021/11/16 02:19:31;;;;;;;47.40;25.02;;;;;;;3.30;92.82;101677.04;1811218;79;25392;-63
2021/11/16 02:21:58;;;;;;;47.62;25.85;;;;;;;3.33;92.92;101677.90;1811296;79;25699;-63
2021/11/16 02:24:24;;;;;;;49.38;26.75;;;;;;;3.34;92.87;101674.20;1811111;79;26255;-63
2021/11/16 02:26:51;;;;;;;51.90;26.85;;;;;;;3.36;92.85;101665.41;1811532;79;25600;-63
2021/11/16 02:29:18;;;;;;;52.05;26.10;;;;;;;3.39;92.84;101670.02;1814010;79;27382;-63
2021/11/16 02:31:45;;;;;;;48.23;25.27;;;;;;;3.40;92.79;101662.30;1774934;80;25631;-63
2021/11/16 02:34:12;;;;;;;47.67;24.25;;;;;;;3.41;92.84;101655.38;1775036;80;25402;-63
2021/11/16 02:36:41;;;;;;;50.67;26.77;;;;;;;3.44;92.87;101660.28;1744447;82;25875;-63
2021/11/16 02:39:08;;;;;;;56.58;27.07;;;;;;;3.47;92.96;101659.80;1775068;80;25380;-63
2021/11/16 02:41:37;;;;;;;46.90;25.43;;;;;;;3.48;92.93;101652.08;1742727;82;27380;-64
2021/11/16 02:44:06;;;;;;;48.23;25.67;;;;;;;3.49;92.79;101649.72;1775361;80;25641;-63
2021/11/16 02:46:34;;;;;;;51.57;25.07;;;;;;;3.50;92.81;101651.86;1743030;82;25409;-64
2021/11/16 02:49:01;;;;;;;46.83;25.08;;;;;;;3.51;92.79;101648.95;1775045;80;25656;-63
2021/11/16 02:51:34;;;;;;;51.75;26.10;;;;;;;3.51;92.77;101648.95;1742856;82;25721;-63
2021/11/16 02:54:02;;;;;;;48.98;25.62;;;;;;;3.53;92.86;101650.07;1742658;82;27331;-62
2021/11/16 02:56:28;;;;;;;51.53;26.87;;;;;;;3.53;92.83;101642.85;1775114;80;25626;-63
2021/11/16 02:58:56;;;;;;;50.90;26.95;;;;;;;3.55;92.85;101638.61;1775167;80;25420;-63
2021/11/16 03:01:22;;;;;;;46.80;25.37;;;;;;;3.58;92.88;101635.48;1742659;82;26132;-63
2021/11/16 03:03:49;;;;;;;48.68;26.73;;;;;;;3.61;92.93;101637.71;1775078;80;25601;-62
2021/11/16 03:06:15;;;;;;;52.80;27.02;;;;;;;3.62;92.89;101629.95;1742989;82;27341;-62
2021/11/16 03:08:43;;;;;;;52.62;27.13;;;;;;;3.65;92.84;101630.03;1798583;79;25377;-63
2021/11/16 03:11:11;;;;;;;47.62;25.35;;;;;;;3.66;92.84;101631.15;1813718;79;25569;-63
2021/11/16 03:13:41;;;;;;;50.08;26.37;;;;;;;3.68;92.80;101629.05;1813808;79;25700;-63
2021/11/16 03:16:16;;;;;;;49.75;27.35;;;;;;;3.69;92.81;101620.48;1813954;79;25696;-63
2021/11/16 03:18:53;;;;;;;52.93;27.87;;;;;;;3.70;92.80;101617.59;1813793;79;27324;-63
2021/11/16 03:21:23;;;;;;;48.90;26.82;;;;;;;3.73;92.83;101617.13;1813850;79;25730;-64
2021/11/16 03:23:52;;;;;;;51.20;27.77;;;;;;;3.76;92.81;101617.71;1794652;79;25628;-63
2021/11/16 03:26:22;;;;;;;56.02;28.65;;;;;;;3.78;92.80;101611.59;1813946;79;26182;-63
2021/11/16 03:28:51;;;;;;;55.55;27.93;;;;;;;3.79;92.76;101614.58;1786396;79;25420;-63
2021/11/16 03:31:36;;;;;;;54.00;27.62;;;;;;;3.79;92.84;101618.06;1786462;80;27332;-62
2021/11/16 03:33:50;;;;;;;53.35;27.45;;;;;;;3.81;92.70;101617.83;1788534;79;25629;-62
2021/11/16 03:36:19;;;;;;;54.05;29.27;;;;;;;3.84;92.82;101618.72;1811996;79;25694;-62
2021/11/16 03:38:46;;;;;;;55.30;27.93;;;;;;;3.87;92.84;101619.06;1813914;79;26200;-62
2021/11/16 03:41:14;;;;;;;56.73;28.10;;;;;;;3.90;92.83;101615.12;1813824;79;25736;-63
2021/11/16 03:43:41;;;;;;;48.20;27.77;;;;;;;3.91;92.75;101614.06;1813715;79;27375;-62
2021/11/16 03:46:09;;;;;;;57.50;27.32;;;;;;;3.92;92.83;101615.17;1813810;79;25450;-62
2021/11/16 03:48:36;;;;;;;56.02;28.20;;;;;;;3.95;92.73;101611.73;1813983;79;25628;-62
2021/11/16 03:51:04;;;;;;;55.63;29.15;;;;;;;3.97;92.71;101617.66;1775157;80;25679;-62
2021/11/16 03:53:31;;;;;;;56.42;29.20;;;;;;;3.98;92.65;101604.05;1775293;80;25384;-62
2021/11/16 03:55:58;;;;;;;51.20;28.30;;;;;;;3.99;92.62;101606.22;1742887;82;27353;-62
2021/11/16 03:58:26;;;;;;;55.10;28.47;;;;;;;4.01;92.61;101608.14;1774965;80;25615;-63
2021/11/16 04:01:00;;;;;;;59.77;30.80;;;;;;;4.04;92.72;101610.35;1742648;82;25701;-63
2021/11/16 04:03:31;;;;;;;56.33;28.77;;;;;;;4.06;92.57;101613.08;1774973;80;26186;-62
2021/11/16 04:05:59;;;;;;;59.25;29.67;;;;;;;4.08;92.56;101611.50;1742715;82;25473;-63
2021/11/16 04:08:26;;;;;;;57.27;29.90;;;;;;;4.08;92.53;101604.28;1774943;80;27390;-63
2021/11/16 04:10:53;;;;;;;60.78;29.82;;;;;;;4.10;92.55;101612.92;1742497;82;25611;-63
2021/11/16 04:13:20;;;;;;;55.55;29.12;;;;;;;4.11;92.50;101605.16;1774869;80;25405;-63
2021/11/16 04:15:49;;;;;;;54.60;28.23;;;;;;;4.12;92.44;101599.30;1742710;82;25626;-63
2021/11/16 04:18:19;;;;;;;57.50;28.95;;;;;;;4.14;92.44;101609.75;1742579;82;25717;-63
2021/11/16 04:20:51;;;;;;;57.75;30.27;;;;;;;4.15;92.40;101604.70;1775190;80;27310;-63
2021/11/16 04:23:18;;;;;;;64.92;31.20;;;;;;;4.16;92.46;101593.75;1774913;80;25682;-63
2021/11/16 04:25:45;;;;;;;66.15;31.97;;;;;;;4.19;92.51;101596.47;1742433;82;26149;-63
2021/11/16 04:28:14;;;;;;;56.70;31.60;;;;;;;4.19;92.46;101591.95;1744070;81;26183;-63
2021/11/16 04:30:41;;;;;;;61.05;31.37;;;;;;;4.19;92.42;101593.80;1774991;80;25447;-63
2021/11/16 04:33:08;;;;;;;55.17;29.90;;;;;;;4.21;92.46;101587.70;1744037;82;27923;-63
2021/11/16 04:35:34;;;;;;;63.92;31.20;;;;;;;4.22;92.44;101589.31;1774855;80;25618;-63
2021/11/16 04:38:04;;;;;;;63.55;32.20;;;;;;;4.24;92.46;101585.87;1742622;82;25634;-63
2021/11/16 04:40:37;;;;;;;59.63;30.08;;;;;;;4.24;92.45;101584.53;1742520;82;25660;-63
2021/11/16 04:43:14;;;;;;;64.58;31.35;;;;;;;4.25;92.50;101582.16;1775139;80;25393;-63
2021/11/16 04:45:41;;;;;;;61.90;32.67;;;;;;;4.25;92.42;101580.28;1742646;82;27934;-63
2021/11/16 04:48:21;;;;;;;62.95;33.05;;;;;;;4.29;92.45;101585.98;1774638;80;25744;-63
2021/11/16 04:51:02;;;;;;;63.38;33.60;;;;;;;4.30;92.42;101592.45;1722328;82;25509;-63
2021/11/16 04:53:37;;;;;;;67.10;34.08;;;;;;;4.32;92.58;101592.21;1772307;80;25887;-63
2021/11/16 05:04:17;;;;;;;67.05;33.63;;;;;;;4.39;92.46;101603.64;1742447;82;25597;-62
2021/11/16 05:06:44;;;;;;;66.42;33.28;;;;;;;4.41;92.47;101593.50;1691230;83;25753;-62
2021/11/16 05:09:15;;;;;;;69.05;34.83;;;;;;;4.43;92.39;101603.45;1742721;82;25559;-62
2021/11/16 05:11:42;;;;;;;63.30;31.77;;;;;;;4.45;92.39;101595.18;1711317;83;27952;-63
2021/11/16 05:14:10;;;;;;;68.57;34.58;;;;;;;4.45;92.28;101594.64;1742595;82;25704;-62
2021/11/16 05:16:37;;;;;;;66.70;33.78;;;;;;;4.46;92.27;101590.92;1711505;83;26081;-64
2021/11/16 05:19:03;;;;;;;63.52;32.60;;;;;;;4.48;92.39;101594.18;1742397;82;26187;-64
2021/11/16 05:21:30;;;;;;;68.75;35.17;;;;;;;4.53;92.33;101600.68;1711519;83;25804;-64
2021/11/16 05:24:00;;;;;;;69.37;34.15;;;;;;;4.55;92.36;101606.64;1742594;82;27333;-62
2021/11/16 05:26:29;;;;;;;65.22;32.90;;;;;;;4.58;92.30;101600.78;1711210;83;26293;-62
2021/11/16 05:28:58;;;;;;;67.85;34.75;;;;;;;4.61;92.30;101607.02;1742601;82;25678;-62
2021/11/16 05:31:26;;;;;;;66.35;35.65;;;;;;;4.63;92.38;101604.41;1711600;83;25645;-62
2021/11/16 05:33:54;;;;;;;69.65;35.08;;;;;;;4.65;92.30;101596.13;1742290;82;25565;-62
2021/11/16 05:36:22;;;;;;;64.32;33.95;;;;;;;4.66;92.13;101599.89;1711487;83;27351;-62
2021/11/16 05:38:50;;;;;;;71.30;35.78;;;;;;;4.66;92.05;101597.74;1742507;82;25692;-62
2021/11/16 05:41:19;;;;;;;63.87;33.88;;;;;;;4.66;92.03;101594.52;1711294;83;25555;-62
2021/11/16 05:43:47;;;;;;;69.12;35.17;;;;;;;4.68;92.07;101596.97;1742793;82;25620;-63
2021/11/16 05:46:20;;;;;;;74.30;36.33;;;;;;;4.70;92.07;101595.40;1711469;83;25576;-63
2021/11/16 05:48:45;;;;;;;73.05;37.13;;;;;;;4.71;92.02;101596.50;1740959;82;27315;-63
2021/11/16 05:51:12;;;;;;;68.83;34.90;;;;;;;4.72;91.97;101601.36;1738014;82;25664;-62
2021/11/16 05:53:40;;;;;;;77.10;37.98;;;;;;;4.73;91.95;101601.62;1738143;82;25420;-63
2021/11/16 05:56:07;;;;;;;71.20;37.20;;;;;;;4.74;91.99;101599.25;1737898;82;25535;-63
2021/11/16 05:58:34;;;;;;;73.97;38.00;;;;;;;4.73;91.91;101601.09;1738150;82;25397;-63
2021/11/16 06:01:01;;;;;;;69.15;37.78;;;;;;;4.74;91.95;101605.42;1738109;82;27398;-63
2021/11/16 06:03:28;;;;;;;76.22;38.13;;;;;;;4.73;92.00;101602.44;1737855;82;25764;-63
2021/11/16 06:05:54;;;;;;;77.47;39.55;;;;;;;4.76;92.02;101607.86;1738125;82;25647;-63
2021/11/16 06:08:24;;;;;;;75.75;39.92;;;;;;;4.76;91.96;101615.37;1738244;82;25536;-63
2021/11/16 06:10:53;;;;;;;79.37;39.25;;;;;;;4.78;92.03;101615.94;1740694;82;25701;-63
2021/11/16 06:13:20;;;;;;;79.50;40.92;;;;;;;4.79;92.05;101618.92;1711535;83;27358;-63
2021/11/16 06:15:47;;;;;;;79.97;40.73;;;;;;;4.81;92.06;101614.67;1738315;82;25388;-64
2021/11/16 06:18:15;;;;;;;87.85;44.75;;;;;;;4.83;92.06;101620.06;1770036;80;25606;-64
2021/11/16 06:20:44;;;;;;;85.15;42.40;;;;;;;4.86;92.10;101619.59;1780124;80;25644;-64
2021/11/16 06:23:11;;;;;;;85.60;41.40;;;;;;;4.89;91.98;101609.44;1780184;80;25790;-64
2021/11/16 06:25:40;;;;;;;79.12;39.65;;;;;;;4.88;91.94;101616.68;1779890;80;27360;-64
2021/11/16 06:28:08;;;;;;;83.67;42.00;;;;;;;4.89;91.92;101614.30;1784123;80;25422;-63
2021/11/16 06:30:35;;;;;;;81.95;40.55;;;;;;;4.90;91.92;101617.25;1780172;80;25689;-64
2021/11/16 06:33:02;;;;;;;76.77;39.78;;;;;;;4.90;91.79;101619.92;1742333;82;25563;-63
2021/11/16 06:35:29;;;;;;;79.85;40.60;;;;;;;4.91;91.77;101615.40;1742563;82;25620;-64
2021/11/16 06:37:56;;;;;;;84.83;40.67;;;;;;;4.91;91.79;101616.74;1711406;83;27182;-63
2021/11/16 06:40:23;;;;;;;81.82;41.50;;;;;;;4.92;91.78;101621.03;1742443;82;25540;-63
2021/11/16 06:42:50;;;;;;;81.30;41.60;;;;;;;4.91;91.73;101629.61;1742628;82;25597;-63
2021/11/16 06:45:18;;;;;;;87.10;40.12;;;;;;;4.92;91.74;101626.40;1711361;83;27780;-63
2021/11/16 06:47:45;;;;;;;81.60;42.40;;;;;;;4.94;91.89;101621.61;1721585;82;25636;-62
2021/11/16 06:50:12;;;;;;;91.82;42.05;;;;;;;4.94;91.79;101622.94;1711427;83;27917;-62
2021/11/16 06:52:39;;;;;;;90.12;43.40;;;;;;;4.96;91.79;101623.55;1693662;82;25702;-62
2021/11/16 06:55:09;;;;;;;93.30;44.63;;;;;;;4.96;91.77;101624.89;1711314;83;25592;-64
2021/11/16 06:57:36;;;;;;;89.45;43.17;;;;;;;4.96;91.74;101624.35;1742623;82;25774;-62
2021/11/16 07:00:07;;;;;;;96.08;45.58;;;;;;;4.99;91.76;101637.83;1711430;83;25659;-64
2021/11/16 07:02:34;;;;;;;94.17;43.48;;;;;;;5.01;91.73;101639.73;1747265;81;27334;-64
2021/11/16 07:05:11;;;;;;;90.87;45.63;;;;;;;5.01;91.64;101632.49;1774769;80;26021;-65
2021/11/16 07:07:44;;;;;;;101.20;48.38;;;;;;;5.02;91.64;101630.61;1774951;80;25543;-63
2021/11/16 07:10:15;;;;;;;99.70;47.27;;;;;;;5.02;91.66;101626.09;1774580;80;25709;-64
2021/11/16 07:12:43;;;;;;;91.30;46.80;;;;;;;5.04;91.62;101614.59;1774822;80;25643;-64
2021/11/16 07:15:11;;;;;;;91.02;44.93;;;;;;;5.07;91.82;101619.98;1774878;80;27704;-64
2021/11/16 07:17:38;;;;;;;95.77;46.68;;;;;;;5.08;91.78;101609.56;1774593;80;25463;-64
2021/11/16 07:20:07;;;;;;;97.95;47.70;;;;;;;5.09;91.74;101611.20;1774869;80;25683;-63
2021/11/16 07:22:36;;;;;;;105.72;48.00;;;;;;;5.09;91.49;101613.05;1775068;80;25689;-63
2021/11/16 07:25:13;;;;;;;95.42;47.10;;;;;;;5.09;91.46;101603.66;1774974;80;25710;-63
2021/11/16 07:27:43;;;;;;;96.72;47.67;;;;;;;5.10;91.57;101608.78;1775091;80;27274;-63
2021/11/16 07:30:18;;;;;;;105.60;49.77;;;;;;;5.12;91.57;101603.98;1774942;80;25620;-63
2021/11/16 07:33:09;;;;;;;104.27;48.55;;;;;;;5.14;91.62;101599.73;1774821;80;25550;-63
2021/11/16 07:35:34;;;;;;;103.32;48.87;;;;;;;5.15;91.56;101600.83;1774446;80;25566;-63
2021/11/16 07:38:09;;;;;;;107.03;49.60;;;;;;;5.18;91.60;101602.23;1775079;80;25383;-62
2021/11/16 07:40:43;;;;;;;101.40;49.90;;;;;;;5.18;91.51;101592.31;1775083;80;27319;-63
2021/11/16 07:43:15;;;;;;;106.50;50.85;;;;;;;5.19;91.38;101594.45;1775035;80;25575;-64
2021/11/16 07:45:49;;;;;;;94.70;48.30;;;;;;;5.20;91.50;101594.22;1774350;80;25611;-63
2021/11/16 07:48:19;;;;;;;105.27;49.85;;;;;;;5.23;91.55;101590.25;1775042;80;25788;-62
2021/11/16 07:50:53;;;;;;;102.00;49.75;;;;;;;5.24;91.52;101584.66;1775146;80;25662;-62
2021/11/16 07:53:42;;;;;;;104.53;49.83;;;;;;;5.26;91.44;101586.27;1775274;80;27336;-63
2021/11/16 07:56:14;;;;;;;100.07;48.87;;;;;;;5.25;91.09;101582.77;1774333;80;25905;-63
2021/11/16 07:58:47;;;;;;;99.70;50.15;;;;;;;5.24;91.23;101581.13;1774891;80;25615;-61
2021/11/16 08:01:24;;;;;;;105.58;50.55;;;;;;;5.28;91.41;101582.80;1774747;80;26213;-62
2021/11/16 08:04:03;;;;;;;103.78;50.30;;;;;;;5.29;91.19;101571.03;1776548;80;25696;-63
2021/11/16 08:06:33;;;;;;;104.40;50.83;;;;;;;5.28;91.06;101566.20;1750941;80;27346;-62
2021/11/16 08:09:08;;;;;;;102.80;49.20;;;;;;;5.29;91.04;101578.54;1766973;79;25556;-62
2021/11/16 08:14:00;;;;;;;108.40;50.60;;;;;;;5.30;91.10;101573.47;1770145;80;25826;-62
2021/11/16 08:16:28;;;;;;;102.30;49.98;;;;;;;5.31;91.01;101575.11;1769163;80;25627;-61
2021/11/16 08:19:09;;;;;;;101.10;49.25;;;;;;;5.31;90.85;101575.62;1765919;81;27307;-62
2021/11/16 08:21:39;;;;;;;108.67;49.20;;;;;;;5.31;90.85;101561.70;1765998;81;25581;-62
2021/11/16 08:24:10;;;;;;;102.72;46.60;;;;;;;5.32;91.03;101560.62;1743986;81;25483;-62
2021/11/16 08:26:45;;;;;;;94.03;44.27;;;;;;;5.34;91.12;101559.84;1765948;81;25738;-62
2021/11/16 08:29:16;;;;;;;99.37;47.83;;;;;;;5.37;90.81;101561.25;1765266;80;25704;-63
2021/11/16 08:31:47;;;;;;;98.40;45.78;;;;;;;5.35;90.48;101553.97;1769912;80;27340;-63
2021/11/16 08:34:15;;;;;;;98.97;47.98;;;;;;;5.34;90.55;101558.50;1768428;80;25690;-63
2021/11/16 08:36:47;;;;;;;91.25;47.08;;;;;;;5.34;90.50;101552.33;1769682;80;25711;-63
2021/11/16 08:39:16;;;;;;;102.47;46.37;;;;;;;5.35;90.66;101548.61;1769312;80;25639;-63
2021/11/16 08:41:43;;;;;;;96.97;47.03;;;;;;;5.38;90.78;101550.27;1768059;80;32661;-62
2021/11/16 08:44:15;;;;;;;99.22;48.28;;;;;;;5.42;90.67;101550.59;1773105;80;27257;-64
2021/11/16 08:46:44;;;;;;;93.52;46.75;;;;;;;5.41;90.37;101554.33;1778241;80;25770;-63
2021/11/16 08:49:23;;;;;;;;;;;;;;;5.37;90.24;101544.61;1778968;80;25637;-63
2021/11/16 08:51:50;;;;;;;97.42;42.90;;;;;;;5.38;90.35;101542.22;1772816;80;26224;-63
2021/11/16 08:54:28;;;;;;;93.35;44.55;;;;;;;5.36;90.36;101545.69;1775984;80;25574;-63
2021/11/16 08:56:55;;;;;;;89.03;45.05;;;;;;;5.38;90.47;101545.41;1774457;80;27337;-63
2021/11/16 08:59:22;;;;;;;94.17;46.50;;;;;;;5.39;90.39;101545.17;1776230;80;25533;-65
2021/11/16 09:02:02;;;;;;;94.97;45.78;;;;;;;5.41;90.48;101544.42;1776136;80;25562;-64
2021/11/16 09:04:33;;;;;;;97.67;46.00;;;;;;;5.41;90.27;101538.22;1773687;80;26331;-63
2021/11/16 09:07:01;;;;;;;93.30;46.83;;;;;;;5.41;90.12;101540.91;1773214;80;25624;-64
2021/11/16 09:09:30;;;;;;;90.45;44.53;;;;;;;5.40;90.15;101543.33;1773637;80;27311;-64
2021/11/16 09:12:05;;;;;;;99.07;46.77;;;;;;;5.36;90.11;101532.77;1773725;80;25695;-63
2021/11/16 09:14:33;;;;;;;91.85;44.25;;;;;;;5.36;90.01;101536.80;1773431;80;25594;-65
2021/11/16 09:17:12;;;;;;;91.32;44.65;;;;;;;5.37;90.12;101535.22;1773246;80;25634;-64
2021/11/16 09:19:39;;;;;;;88.50;41.83;;;;;;;5.39;90.16;101533.09;1773819;80;25579;-65
2021/11/16 09:22:10;;;;;;;94.10;44.75;;;;;;;5.38;90.18;101530.14;1773250;80;27309;-64
2021/11/16 09:24:38;;;;;;;85.10;41.77;;;;;;;5.38;90.04;101523.95;1770024;80;25862;-64
2021/11/16 09:29:37;;;;;;;83.92;40.92;;;;;;;5.37;89.94;101518.31;1773254;80;25699;-62
2021/11/16 09:32:14;;;;;;;78.33;40.65;;;;;;;5.37;89.76;101526.36;1773517;80;25649;-63
2021/11/16 09:34:45;;;;;;;80.05;39.70;;;;;;;5.36;89.80;101523.38;1773519;80;27333;-64
2021/11/16 09:37:19;;;;;;;80.05;38.83;;;;;;;5.34;89.64;101511.55;1752601;80;26808;-63
2021/11/16 09:39:50;;;;;;;82.55;39.90;;;;;;;5.34;89.74;101513.42;1773566;80;25448;-63
2021/11/16 09:42:25;;;;;;;78.75;38.55;;;;;;;5.34;89.76;101511.55;1772980;80;26296;-63
2021/11/16 09:44:58;;;;;;;78.22;40.90;;;;;;;5.34;89.59;101512.09;1767900;80;25584;-65
2021/11/16 09:47:29;;;;;;;93.78;42.90;;;;;;;5.33;89.64;101506.42;1760826;81;27356;-62
2021/11/16 09:50:00;;;;;;;86.30;42.00;;;;;;;5.32;89.55;101506.96;1760633;81;26211;-62
2021/11/16 09:52:36;;;;;;;89.10;43.17;;;;;;;5.32;89.58;101527.08;1760617;81;25674;-62
2021/11/16 09:55:16;;;;;;;82.95;40.65;;;;;;;5.30;89.55;101514.45;1727656;81;25637;-66
2021/11/16 09:57:52;;;;;;;87.72;41.08;;;;;;;5.32;89.76;101504.81;1760372;80;25723;-68
2021/11/16 10:00:36;;;;;;;90.60;42.43;;;;;;;5.35;89.93;101508.36;1760619;81;27384;-66
2021/11/16 10:03:13;;;;;;;91.12;42.67;;;;;;;5.35;89.64;101508.36;1759974;80;25525;-68
2021/11/16 10:05:45;;;;;;;84.22;42.17;;;;;;;5.35;89.43;101497.63;1765697;81;25611;-66
2021/11/16 10:08:14;;;;;;;87.88;42.80;;;;;;;5.35;89.46;101511.04;1765621;81;25784;-67
2021/11/16 10:10:46;;;;;;;86.60;40.92;;;;;;;5.33;89.35;101495.69;1766036;81;25664;-66
2021/11/16 10:13:17;;;;;;;78.65;39.95;;;;;;;5.33;89.54;101488.98;1765883;80;27901;-66
2021/11/16 10:15:48;;;;;;;83.75;39.85;;;;;;;5.33;89.50;101497.87;1765446;81;25734;-67
2021/11/16 10:18:18;;;;;;;86.20;40.85;;;;;;;5.34;89.61;101495.98;1765802;81;25579;-66
2021/11/16 10:20:47;;;;;;;88.65;41.65;;;;;;;5.34;89.55;101492.77;1765878;81;26283;-66
2021/11/16 10:23:43;;;;;;;85.25;40.28;;;;;;;5.35;89.63;101490.92;1765867;81;25702;-66
2021/11/16 10:26:12;;;;;;;81.67;39.90;;;;;;;5.36;89.37;101491.19;1746588;81;27318;-68
2021/11/16 10:28:43;;;;;;;81.22;40.90;;;;;;;5.35;89.46;101490.38;1765876;81;25402;-67
2021/11/16 10:31:11;;;;;;;81.08;38.35;;;;;;;5.35;89.42;101475.62;1765973;81;25728;-67
2021/11/16 10:33:42;;;;;;;82.55;38.50;;;;;;;5.37;89.57;101474.04;1765706;81;26257;-67
2021/11/16 10:36:32;;;;;;;82.30;40.43;;;;;;;5.39;89.65;101473.27;1763627;81;25620;-67
2021/11/16 10:39:00;;;;;;;88.07;42.50;;;;;;;5.41;89.47;101468.45;1685059;84;27427;-66
2021/11/16 10:41:34;;;;;;;83.03;40.07;;;;;;;5.39;89.33;101467.89;1683975;85;25682;-68
2021/11/16 10:44:09;;;;;;;83.03;40.45;;;;;;;5.39;89.47;101466.02;1683913;85;25624;-66
2021/11/16 10:46:40;;;;;;;86.12;40.88;;;;;;;5.41;89.31;101473.82;1682709;85;25712;-68
2021/11/16 10:49:13;;;;;;;85.57;41.50;;;;;;;5.38;89.21;101472.45;1691813;84;25454;-67
2021/11/16 10:51:43;;;;;;;87.72;42.17;;;;;;;5.37;89.35;101470.81;1684136;85;27348;-66
2021/11/16 10:54:15;;;;;;;88.65;40.45;;;;;;;5.40;89.39;101468.19;1683939;85;25716;-67
2021/11/16 10:56:43;;;;;;;84.17;39.55;;;;;;;5.41;89.42;101471.97;1688069;84;26080;-66
2021/11/16 10:59:19;;;;;;;78.00;40.08;;;;;;;5.42;89.50;101461.50;1685219;84;25686;-69
2021/11/16 11:01:56;;;;;;;91.02;43.40;;;;;;;5.43;89.37;101467.67;1686592;84;25676;-69
2021/11/16 11:04:27;;;;;;;88.35;41.90;;;;;;;5.43;89.39;101469.02;1705487;84;27943;-69
2021/11/16 11:06:54;;;;;;;87.85;41.28;;;;;;;5.42;89.28;101468.75;1705583;84;25964;-66
2021/11/16 11:09:22;;;;;;;87.95;43.00;;;;;;;5.43;89.37;101462.31;1708037;83;25746;-66
2021/11/16 11:11:54;;;;;;;86.47;45.48;;;;;;;5.44;89.49;101469.31;1715292;83;25742;-67
2021/11/16 11:14:34;;;;;;;97.92;46.68;;;;;;;5.46;89.46;101461.83;1717841;83;25659;-67
2021/11/16 11:17:09;;;;;;;93.17;44.53;;;;;;;5.45;89.42;101455.36;1717809;83;27321;-67
2021/11/16 11:19:40;;;;;;;93.85;45.88;;;;;;;5.44;89.42;101449.19;1720578;83;25759;-66
2021/11/16 11:22:22;;;;;;;95.75;46.73;;;;;;;5.44;89.46;101454.55;1718137;83;26289;-66
2021/11/16 11:25:11;;;;;;;93.90;47.13;;;;;;;5.41;89.45;101450.51;1720658;83;25758;-68
2021/11/16 11:27:44;;;;;;;95.05;47.88;;;;;;;5.42;89.43;101451.31;1720069;83;26417;-67
2021/11/16 11:30:18;;;;;;;98.10;46.80;;;;;;;5.39;89.42;101445.89;1719922;83;27943;-67
2021/11/16 11:32:49;;;;;;;96.37;47.08;;;;;;;5.36;89.48;101440.20;1720696;81;25648;-68
2021/11/16 11:35:20;;;;;;;92.53;44.73;;;;;;;5.33;89.45;101434.81;1745002;80;25734;-67
2021/11/16 11:37:52;;;;;;;93.17;47.85;;;;;;;5.32;89.51;101435.86;1790365;79;25671;-67
2021/11/16 11:40:33;;;;;;;96.08;46.53;;;;;;;5.31;89.65;101440.97;1801505;79;25427;-68
2021/11/16 11:43:10;;;;;;;98.27;45.80;;;;;;;5.31;89.67;101428.05;1801279;79;27922;-67